Irvine, Canada
Current Conditions -  °F | °C
As of 12:00 PM on Monday 20 Oct 2014 (Local Time) from CYXH Reporting Station
Clear Clear  
Wind Chill: 72°   Ceiling: Unl
Heat Index: 72°   Visibility: 30mi
Dew Point: 37°   Wind: 16mph
Humidity: 29%   Direction: 220°SW
Pressure: 29.71"   Gusts: NA
Location:  49.96°N, 110.27°W
Report Text: CYXH 201800Z 22014KT 30SM SKC 22/03 A2971 RMK SLP056 DENSITY ALT 3900FT
Loading
Personal Weather Stations






























Interactive Weather Map
Tropical Storm Tracking
New forecast layout! Learn more

10-Day Weather Forecast

Advertisements
Track Severe Weather on mobile